Time;durP1;ratioP1;P1;durP2;ratioP2;P2;SDS_P1;SDS_P2;PMS_P1;PMS_P2;Temp;Humidity;BMP_temperature;BMP_pressure;BME280_temperature;BME280_humidity;BME280_pressure;Samples;Min_cycle;Max_cycle;Signal;HPM_P1;HPM_P2
2022/11/17 00:00:23;;;;;;;8.02;4.70;;;;;;;6.16;100.00;99328.41;5029176;29;20029;-72
2022/11/17 00:02:54;;;;;;;5.55;3.72;;;;;;;6.09;100.00;99328.69;5030660;29;20116;-73
2022/11/17 00:05:25;;;;;;;7.93;4.28;;;;;;;6.05;100.00;99321.94;5023662;29;20338;-73
2022/11/17 00:07:56;;;;;;;7.15;4.30;;;;;;;6.11;100.00;99306.13;5023562;29;20044;-73
2022/11/17 00:10:26;;;;;;;6.65;4.35;;;;;;;6.08;100.00;99316.63;5023269;29;20061;-73
2022/11/17 00:15:46;;;;;;;5.82;3.72;;;;;;;6.06;100.00;99315.84;5023215;29;20484;-73
2022/11/17 00:21:20;;;;;;;6.18;4.03;;;;;;;6.09;100.00;99323.50;5024081;29;20044;-73
2022/11/17 00:23:51;;;;;;;6.97;4.18;;;;;;;6.19;100.00;99319.63;5068760;29;20053;-73
2022/11/17 00:26:27;;;;;;;6.30;4.18;;;;;;;6.14;100.00;99311.19;5028428;29;20049;-73
2022/11/17 00:29:00;;;;;;;6.20;4.32;;;;;;;6.14;100.00;99306.00;5025003;29;20038;-72
2022/11/17 00:34:22;;;;;;;7.35;4.10;;;;;;;6.08;100.00;99301.91;5019808;29;20175;-73
2022/11/17 00:36:54;;;;;;;6.15;4.22;;;;;;;6.06;100.00;99295.09;5026278;29;20029;-73
2022/11/17 00:39:24;;;;;;;6.57;4.22;;;;;;;6.06;100.00;99298.53;5025012;29;20080;-73
2022/11/17 00:41:55;;;;;;;7.20;4.05;;;;;;;6.08;100.00;99291.53;5085669;29;20025;-73
2022/11/17 00:44:26;;;;;;;7.90;4.45;;;;;;;6.08;100.00;99296.72;5031021;29;20487;-73
2022/11/17 00:46:57;;;;;;;7.90;4.50;;;;;;;6.14;100.00;99290.44;5023804;29;20068;-73
2022/11/17 00:49:28;;;;;;;6.97;4.28;;;;;;;6.02;100.00;99277.94;5023060;29;20061;-73
2022/11/17 00:51:58;;;;;;;6.72;4.60;;;;;;;6.06;100.00;99279.53;5023054;29;20029;-72
2022/11/17 00:57:02;;;;;;;7.20;4.95;;;;;;;6.08;100.00;99280.31;5055950;28;20052;-73
2022/11/17 00:59:33;;;;;;;7.45;4.63;;;;;;;5.98;100.00;99269.47;5076280;28;20034;-73
2022/11/17 01:02:04;;;;;;;7.47;5.07;;;;;;;6.02;100.00;99280.53;5081940;28;20038;-73
2022/11/17 01:04:35;;;;;;;8.77;5.80;;;;;;;5.98;100.00;99278.97;5092105;28;20033;-73
2022/11/17 01:07:05;;;;;;;7.88;5.40;;;;;;;5.94;100.00;99267.88;5121810;28;20035;-73
2022/11/17 01:09:36;;;;;;;8.43;5.18;;;;;;;5.90;100.00;99265.47;5084688;28;20036;-73
2022/11/17 01:12:06;;;;;;;6.50;4.72;;;;;;;5.93;100.00;99265.34;5123285;28;20178;-73
2022/11/17 01:14:37;;;;;;;7.93;4.63;;;;;;;5.89;100.00;99264.59;5090593;28;20254;-73
2022/11/17 01:17:07;;;;;;;7.90;4.88;;;;;;;5.93;100.00;99244.59;5096548;28;20043;-73
2022/11/17 01:19:38;;;;;;;8.65;4.78;;;;;;;5.86;100.00;99258.69;5109552;28;20041;-73
2022/11/17 01:22:09;;;;;;;6.82;4.38;;;;;;;5.87;100.00;99261.22;5081486;28;20690;-73
2022/11/17 01:24:40;;;;;;;7.10;4.78;;;;;;;5.91;100.00;99257.63;5109873;28;20042;-73
2022/11/17 01:27:11;;;;;;;12.20;5.10;;;;;;;5.93;100.00;99254.97;5094897;28;20026;-73
2022/11/17 01:29:41;;;;;;;7.03;4.30;;;;;;;5.99;100.00;99253.00;5107565;28;20068;-73
2022/11/17 01:32:12;;;;;;;7.55;4.97;;;;;;;5.85;100.00;99255.25;5100614;28;20027;-73
2022/11/17 01:34:43;;;;;;;8.70;4.72;;;;;;;5.93;100.00;99249.78;5150171;23;20053;-75
2022/11/17 01:37:20;;;;;;;7.50;4.53;;;;;;;5.91;100.00;99249.84;5053626;28;20056;-76
2022/11/17 01:39:50;;;;;;;6.78;4.53;;;;;;;5.86;100.00;99256.09;5094047;28;20052;-76
2022/11/17 01:42:23;;;;;;;7.10;4.80;;;;;;;5.86;100.00;99237.94;5028315;29;20395;-76
2022/11/17 01:44:54;;;;;;;7.03;4.97;;;;;;;5.78;100.00;99233.06;5065629;29;20126;-74
2022/11/17 01:47:31;;;;;;;8.35;4.68;;;;;;;5.78;100.00;99227.00;5055317;29;20499;-76
2022/11/17 01:50:20;;;;;;;7.10;4.90;;;;;;;5.69;100.00;99216.97;5025590;29;20518;-76
2022/11/17 01:52:54;;;;;;;8.10;5.50;;;;;;;5.71;100.00;99212.59;5024080;29;20415;-75
2022/11/17 01:55:31;;;;;;;7.43;4.50;;;;;;;5.72;100.00;99204.75;5034715;29;20037;-76
2022/11/17 01:58:08;;;;;;;7.40;5.00;;;;;;;5.73;100.00;99203.03;5084892;29;20120;-75
2022/11/17 02:00:39;;;;;;;10.88;5.78;;;;;;;5.71;100.00;99199.66;5058024;29;20068;-75
2022/11/17 02:03:11;;;;;;;10.90;4.97;;;;;;;5.69;100.00;99201.44;5019527;29;20057;-76
2022/11/17 02:05:50;;;;;;;9.32;5.20;;;;;;;5.74;100.00;99194.34;5052856;29;20029;-76
2022/11/17 02:08:24;;;;;;;9.00;5.07;;;;;;;5.74;100.00;99196.94;5022763;29;20029;-76
2022/11/17 02:10:55;;;;;;;7.28;4.75;;;;;;;5.75;100.00;99188.25;5021668;29;20030;-76
2022/11/17 02:13:27;;;;;;;6.53;4.72;;;;;;;5.81;100.00;99203.59;5065589;29;20015;-77
2022/11/17 02:15:58;;;;;;;8.02;5.28;;;;;;;5.82;100.00;99195.78;5060756;29;20069;-76
2022/11/17 02:18:29;;;;;;;7.78;5.07;;;;;;;5.80;100.00;99199.31;5034747;29;20038;-76
2022/11/17 02:21:22;;;;;;;7.47;5.07;;;;;;;5.85;100.00;99189.59;5057341;29;20048;-76
2022/11/17 02:24:10;;;;;;;8.65;5.50;;;;;;;5.85;100.00;99187.00;5019442;29;20084;-76
2022/11/17 02:27:23;;;;;;;7.55;5.38;;;;;;;5.83;100.00;99184.50;5063046;29;20121;-77
2022/11/17 02:30:02;;;;;;;9.77;5.07;;;;;;;5.82;100.00;99187.13;5059328;29;20040;-77
2022/11/17 02:33:01;;;;;;;9.23;5.22;;;;;;;5.92;100.00;99188.47;5063374;29;20041;-76
2022/11/17 02:35:43;;;;;;;7.60;5.05;;;;;;;5.85;100.00;99174.06;5020262;29;20041;-76
2022/11/17 02:38:26;;;;;;;7.65;5.07;;;;;;;5.81;100.00;99188.03;5052382;29;20037;-76
2022/11/17 02:41:10;;;;;;;7.55;5.57;;;;;;;5.84;100.00;99188.78;5052346;29;20403;-76
2022/11/17 02:44:03;;;;;;;9.63;5.80;;;;;;;5.93;100.00;99188.41;5019660;29;20061;-75
2022/11/17 02:46:43;;;;;;;8.05;5.50;;;;;;;5.94;100.00;99184.06;5032044;29;20080;-77
2022/11/17 02:49:23;;;;;;;8.40;6.00;;;;;;;5.87;100.00;99164.47;5023128;29;20057;-76
2022/11/17 02:51:55;;;;;;;8.10;5.70;;;;;;;5.84;100.00;99152.50;5022562;28;20036;-77
2022/11/17 02:54:29;;;;;;;8.00;5.35;;;;;;;5.82;100.00;99150.84;5058103;29;20701;-77
2022/11/17 02:57:00;;;;;;;11.82;6.10;;;;;;;5.80;100.00;99140.56;5056272;28;20077;-77
2022/11/17 02:59:36;;;;;;;8.88;6.20;;;;;;;5.85;100.00;99141.22;5054897;28;20025;-76
2022/11/17 03:02:06;;;;;;;;;;;;;;;5.89;100.00;99134.16;5035206;29;20033;-76
2022/11/17 03:05:04;;;;;;;9.68;6.07;;;;;;;5.87;100.00;99131.63;5027121;29;20264;-77
2022/11/17 03:07:43;;;;;;;14.93;6.15;;;;;;;5.85;100.00;99130.84;5026549;29;20037;-77
2022/11/17 03:10:20;;;;;;;10.05;6.47;;;;;;;5.88;100.00;99132.47;5049631;29;20167;-76
2022/11/17 03:13:03;;;;;;;11.63;6.20;;;;;;;5.88;100.00;99125.53;5092215;28;20039;-77
2022/11/17 03:15:58;;;;;;;9.00;5.75;;;;;;;5.80;100.00;99130.19;5030486;28;20496;-76
2022/11/17 03:18:40;;;;;;;9.35;5.93;;;;;;;5.72;100.00;99129.59;5031266;29;20037;-76
2022/11/17 03:21:18;;;;;;;9.57;6.70;;;;;;;5.71;100.00;99129.69;5183084;23;20763;-76
2022/11/17 03:24:04;;;;;;;10.52;6.47;;;;;;;5.74;100.00;99125.19;5115551;28;20069;-77
2022/11/17 03:26:38;;;;;;;9.13;6.25;;;;;;;5.77;100.00;99109.53;5095504;28;20024;-77
2022/11/17 03:29:13;;;;;;;8.97;6.23;;;;;;;5.81;100.00;99110.28;5129925;28;20459;-76
2022/11/17 03:31:48;;;;;;;11.25;6.55;;;;;;;5.71;100.00;99119.31;5113799;28;20063;-77
2022/11/17 03:34:23;;;;;;;12.88;6.85;;;;;;;5.71;100.00;99109.78;5117244;28;20426;-76
2022/11/17 03:36:59;;;;;;;9.80;6.55;;;;;;;5.72;100.00;99105.44;5104863;28;20043;-75
2022/11/17 03:39:33;;;;;;;10.57;6.50;;;;;;;5.58;100.00;99092.19;5124644;28;20407;-77
2022/11/17 03:42:18;;;;;;;9.57;6.10;;;;;;;5.54;100.00;99080.25;5113416;28;20033;-76
2022/11/17 03:44:54;;;;;;;10.05;6.63;;;;;;;5.55;100.00;99092.31;5261091;23;20045;-76
2022/11/17 03:47:27;;;;;;;9.95;6.38;;;;;;;5.51;100.00;99088.13;5138515;28;20072;-75
2022/11/17 03:50:07;;;;;;;9.90;6.35;;;;;;;5.51;100.00;99085.53;5121423;28;20036;-77
2022/11/17 03:52:38;;;;;;;10.77;6.72;;;;;;;5.53;100.00;99082.00;5135276;23;20039;-76
2022/11/17 03:55:09;;;;;;;10.30;6.72;;;;;;;5.52;100.00;99092.41;5166142;28;20125;-74
2022/11/17 03:57:49;;;;;;;10.48;6.30;;;;;;;5.55;100.00;99092.31;5097856;28;20030;-77
2022/11/17 04:00:20;;;;;;;13.60;6.78;;;;;;;5.50;100.00;99087.31;5105315;28;20121;-75
2022/11/17 04:02:55;;;;;;;10.88;6.88;;;;;;;5.65;100.00;99083.25;5116070;28;20169;-77
2022/11/17 04:05:26;;;;;;;9.98;6.53;;;;;;;5.53;100.00;99074.22;5131628;28;20103;-78
2022/11/17 04:07:56;;;;;;;11.95;6.05;;;;;;;5.55;100.00;99080.19;5078590;28;20122;-78
2022/11/17 04:10:27;;;;;;;11.00;6.38;;;;;;;5.52;100.00;99071.69;5115236;28;20023;-76
2022/11/17 04:15:55;;;;;;;9.95;6.05;;;;;;;5.51;100.00;99070.00;5093221;28;20036;-77
2022/11/17 04:18:26;;;;;;;12.20;6.38;;;;;;;5.48;100.00;99064.94;5128738;28;20026;-76
2022/11/17 04:20:57;;;;;;;9.18;5.97;;;;;;;5.54;100.00;99075.91;5130948;28;20188;-77
2022/11/17 04:23:28;;;;;;;9.98;6.32;;;;;;;5.51;100.00;99060.50;5062142;28;20036;-77
2022/11/17 04:28:49;;;;;;;9.85;6.30;;;;;;;5.45;100.00;99065.06;5088917;28;20099;-76
2022/11/17 04:31:24;;;;;;;10.25;6.80;;;;;;;5.38;100.00;99068.81;5086584;28;20033;-77
2022/11/17 04:33:57;;;;;;;11.23;6.35;;;;;;;5.41;100.00;99053.16;5093222;28;20029;-76
2022/11/17 04:36:38;;;;;;;12.30;6.65;;;;;;;5.42;100.00;99057.44;5119357;28;20072;-77
2022/11/17 04:39:11;;;;;;;10.93;6.82;;;;;;;5.46;100.00;99049.47;5062283;28;20076;-77
2022/11/17 04:42:02;;;;;;;12.90;6.97;;;;;;;5.43;100.00;99059.09;5103842;28;20023;-77
2022/11/17 04:44:32;;;;;;;12.45;7.55;;;;;;;5.46;100.00;99071.94;5099826;28;20061;-76
2022/11/17 04:47:05;;;;;;;11.48;6.93;;;;;;;5.42;100.00;99058.25;5115516;28;20121;-76
2022/11/17 04:49:36;;;;;;;11.15;6.65;;;;;;;5.39;100.00;99052.38;5122727;28;20547;-77
2022/11/17 04:52:07;;;;;;;11.18;6.90;;;;;;;5.29;100.00;99063.97;5126061;28;20014;-75
2022/11/17 04:54:38;;;;;;;12.25;7.00;;;;;;;5.35;100.00;99061.13;5088594;28;20033;-75
2022/11/17 04:57:09;;;;;;;12.25;7.20;;;;;;;5.33;100.00;99065.53;5102906;29;20128;-74
2022/11/17 04:59:40;;;;;;;11.90;7.03;;;;;;;5.39;100.00;99065.31;5133620;28;20512;-75
2022/11/17 05:02:12;;;;;;;14.15;7.53;;;;;;;5.29;100.00;99053.63;5119527;28;20140;-76
2022/11/17 05:05:02;;;;;;;13.02;7.57;;;;;;;5.31;100.00;99051.81;5113028;28;20105;-75
2022/11/17 05:07:33;;;;;;;11.75;6.82;;;;;;;5.23;100.00;99042.66;5048247;29;20132;-76
2022/11/17 05:10:05;;;;;;;12.68;7.60;;;;;;;5.33;100.00;99034.47;5238668;23;20457;-76
2022/11/17 05:18:14;;;;;;;16.58;8.70;;;;;;;5.18;100.00;99022.09;5058027;28;20168;-76
2022/11/17 05:20:45;;;;;;;13.05;8.43;;;;;;;5.16;100.00;99025.69;5089904;28;20055;-76
2022/11/17 05:26:05;;;;;;;12.20;8.43;;;;;;;5.12;100.00;99008.59;5059304;29;20052;-76
2022/11/17 05:28:36;;;;;;;12.63;7.97;;;;;;;5.11;100.00;98988.78;5025890;29;20025;-75
2022/11/17 05:31:07;;;;;;;14.02;9.82;;;;;;;5.10;100.00;99000.88;5038873;29;20033;-76
2022/11/17 05:33:38;;;;;;;13.77;9.35;;;;;;;5.14;100.00;98994.66;5073142;29;20033;-75
2022/11/17 05:36:09;;;;;;;14.15;9.18;;;;;;;5.11;100.00;98986.19;5029438;29;20037;-77
2022/11/17 05:38:40;;;;;;;13.15;8.77;;;;;;;5.16;100.00;98974.72;5030710;29;20068;-77
2022/11/17 05:41:11;;;;;;;15.65;9.43;;;;;;;5.17;100.00;98981.59;5062480;28;20104;-76
2022/11/17 05:43:43;;;;;;;13.88;9.52;;;;;;;5.19;100.00;98964.25;5070144;29;20093;-75
2022/11/17 05:46:14;;;;;;;16.10;10.02;;;;;;;5.15;100.00;98977.41;5070599;29;20033;-76
2022/11/17 05:48:47;;;;;;;17.77;10.65;;;;;;;5.06;100.00;98965.66;5037385;29;20040;-74
2022/11/17 05:51:21;;;;;;;18.45;11.23;;;;;;;5.03;100.00;98973.53;5022536;29;20033;-76
2022/11/17 05:53:52;;;;;;;17.08;10.57;;;;;;;5.05;100.00;98971.75;5031024;29;20099;-76
2022/11/17 05:56:40;;;;;;;16.90;10.38;;;;;;;4.97;100.00;98984.13;5035203;29;20053;-77
2022/11/17 05:59:23;;;;;;;18.98;10.80;;;;;;;4.93;100.00;98969.63;5084346;29;20061;-78
2022/11/17 06:02:03;;;;;;;15.77;10.80;;;;;;;5.01;100.00;98983.09;5076171;29;20092;-76
2022/11/17 06:04:34;;;;;;;17.58;10.30;;;;;;;4.94;100.00;98975.66;5058128;29;20041;-76
2022/11/17 06:07:06;;;;;;;17.90;10.73;;;;;;;5.00;100.00;98978.00;5051623;29;20048;-79
2022/11/17 06:09:39;;;;;;;18.52;11.30;;;;;;;4.94;100.00;98978.25;5050116;29;20141;-76
2022/11/17 06:12:10;;;;;;;18.67;11.05;;;;;;;4.92;100.00;98974.84;5070552;29;20108;-77
2022/11/17 06:14:41;;;;;;;16.23;9.70;;;;;;;4.91;100.00;98981.78;5043037;29;20446;-76
2022/11/17 06:17:45;;;;;;;18.80;11.75;;;;;;;4.87;100.00;98982.81;5025513;29;20039;-76
2022/11/17 06:20:27;;;;;;;18.20;11.55;;;;;;;4.90;100.00;98987.84;5018949;29;20030;-77
2022/11/17 06:23:01;;;;;;;18.58;11.38;;;;;;;4.88;100.00;98992.25;5022718;29;20040;-75
2022/11/17 06:25:34;;;;;;;21.73;13.20;;;;;;;4.87;100.00;98985.38;5028605;29;20033;-77
2022/11/17 06:28:09;;;;;;;17.38;11.23;;;;;;;4.80;100.00;98980.50;5021401;29;20051;-76
2022/11/17 06:33:20;;;;;;;20.60;13.05;;;;;;;4.81;100.00;98988.19;5549469;23;20053;-76
2022/11/17 06:35:51;;;;;;;23.60;13.27;;;;;;;4.75;100.00;98988.44;5050010;28;20561;-75
2022/11/17 06:38:22;;;;;;;23.52;14.02;;;;;;;4.78;100.00;98980.53;5088432;28;20079;-77
2022/11/17 06:40:53;;;;;;;21.27;12.48;;;;;;;4.71;100.00;99002.38;5117972;28;20024;-76
2022/11/17 06:43:24;;;;;;;22.58;13.48;;;;;;;4.75;100.00;98996.19;5373138;23;20134;-75
2022/11/17 06:45:55;;;;;;;22.85;12.63;;;;;;;4.79;100.00;98995.16;5105974;28;20191;-77
2022/11/17 06:48:26;;;;;;;21.83;13.90;;;;;;;4.75;100.00;98982.41;5089927;28;20029;-76
2022/11/17 06:50:57;;;;;;;21.92;12.95;;;;;;;4.69;100.00;98988.69;5108827;28;20096;-76
2022/11/17 06:53:28;;;;;;;22.08;13.38;;;;;;;4.62;100.00;98982.03;5099268;28;20027;-77
2022/11/17 06:56:02;;;;;;;25.75;14.15;;;;;;;4.65;100.00;98976.72;5103841;28;20759;-73
2022/11/17 06:58:35;;;;;;;25.42;14.00;;;;;;;4.59;100.00;98963.19;5123264;28;20037;-75
2022/11/17 07:01:11;;;;;;;22.65;14.00;;;;;;;4.63;100.00;98972.53;5048164;29;20025;-76
2022/11/17 07:03:42;;;;;;;25.42;14.18;;;;;;;4.57;100.00;98971.00;5120694;28;20037;-78
2022/11/17 07:06:14;;;;;;;23.50;14.48;;;;;;;4.61;100.00;98964.81;5146105;28;20078;-79
2022/11/17 07:08:45;;;;;;;24.65;14.27;;;;;;;4.60;100.00;98985.59;5109269;28;20506;-77
2022/11/17 07:11:16;;;;;;;24.50;13.52;;;;;;;4.64;100.00;98981.97;5118052;28;20027;-77
2022/11/17 07:16:20;;;;;;;22.30;12.80;;;;;;;4.64;100.00;98984.56;5139462;28;20046;-77
2022/11/17 07:18:51;;;;;;;22.67;13.73;;;;;;;4.69;100.00;98980.91;5144313;28;20667;-76
2022/11/17 07:21:22;;;;;;;23.25;13.07;;;;;;;4.73;100.00;98979.88;5131683;28;20033;-77
2022/11/17 07:23:53;;;;;;;23.35;13.52;;;;;;;4.61;100.00;98972.56;5140978;28;20019;-77
2022/11/17 07:26:24;;;;;;;21.45;13.10;;;;;;;4.71;100.00;98971.34;5123343;28;20105;-77
2022/11/17 07:28:54;;;;;;;22.23;13.35;;;;;;;4.75;100.00;98967.72;5140667;28;20628;-77
2022/11/17 07:31:25;;;;;;;20.90;12.52;;;;;;;4.76;100.00;98971.16;5142600;28;20389;-77
2022/11/17 07:36:28;;;;;;;24.55;13.85;;;;;;;4.73;100.00;98964.38;5124578;28;20046;-72
2022/11/17 07:38:59;;;;;;;20.77;12.52;;;;;;;4.70;100.00;98972.25;5123759;28;20043;-74
2022/11/17 07:41:30;;;;;;;19.30;12.02;;;;;;;4.78;100.00;98969.38;5120801;28;20054;-73
2022/11/17 07:44:01;;;;;;;20.17;12.68;;;;;;;4.60;100.00;98968.31;5105327;28;20039;-72
2022/11/17 07:46:32;;;;;;;20.80;12.60;;;;;;;4.64;100.00;98972.47;5128609;28;20082;-72
2022/11/17 07:49:02;;;;;;;21.50;12.48;;;;;;;4.62;100.00;98956.16;5123958;28;20057;-72
2022/11/17 07:51:33;;;;;;;21.88;12.10;;;;;;;4.62;100.00;98961.31;5121989;28;20039;-72
2022/11/17 07:54:04;;;;;;;21.85;12.73;;;;;;;4.57;100.00;98968.44;5107785;29;20628;-73
2022/11/17 07:56:34;;;;;;;22.25;13.23;;;;;;;4.54;100.00;98939.25;5126734;28;20050;-73
2022/11/17 07:59:05;;;;;;;22.92;13.27;;;;;;;4.59;100.00;98945.94;5126267;28;20153;-73
2022/11/17 08:01:36;;;;;;;21.13;11.68;;;;;;;4.53;100.00;98940.16;5123181;28;20085;-73
2022/11/17 08:04:06;;;;;;;23.00;12.10;;;;;;;4.53;100.00;98951.34;5124144;29;20038;-73
2022/11/17 08:06:37;;;;;;;19.55;11.95;;;;;;;4.60;100.00;98947.63;5128264;28;20027;-73
2022/11/17 08:09:09;;;;;;;18.20;11.45;;;;;;;4.54;100.00;98947.00;5119207;28;20030;-72
2022/11/17 08:11:40;;;;;;;19.02;11.07;;;;;;;4.51;100.00;98952.28;5121478;28;20477;-73
2022/11/17 08:14:10;;;;;;;21.80;10.80;;;;;;;4.54;100.00;98942.69;5121285;28;20038;-73
2022/11/17 08:16:41;;;;;;;16.98;10.27;;;;;;;4.55;100.00;98941.78;5121708;28;20105;-73
2022/11/17 08:19:13;;;;;;;15.55;9.90;;;;;;;4.63;100.00;98929.38;5120947;28;20045;-72
2022/11/17 08:21:43;;;;;;;16.27;9.57;;;;;;;4.63;100.00;98931.16;5120362;28;20457;-73
2022/11/17 08:24:15;;;;;;;14.57;9.35;;;;;;;4.64;100.00;98925.91;5122356;28;20114;-74
2022/11/17 08:26:45;;;;;;;16.95;7.82;;;;;;;4.59;100.00;98930.41;5110850;28;20023;-74
2022/11/17 08:29:16;;;;;;;15.57;8.32;;;;;;;4.63;100.00;98923.38;5106340;29;20089;-73
2022/11/17 08:31:47;;;;;;;17.40;9.25;;;;;;;4.64;100.00;98941.41;5114694;28;20023;-73
2022/11/17 08:34:18;;;;;;;14.65;8.73;;;;;;;4.64;100.00;98940.59;5106412;28;20031;-73
2022/11/17 08:36:48;;;;;;;12.90;8.00;;;;;;;4.64;100.00;98931.06;5123707;28;20508;-74
2022/11/17 08:39:18;;;;;;;16.33;8.60;;;;;;;4.65;100.00;98944.88;5123188;29;20038;-74
2022/11/17 08:41:50;;;;;;;13.82;8.40;;;;;;;4.66;100.00;98941.38;5122867;28;20087;-74
2022/11/17 08:44:20;;;;;;;13.90;8.38;;;;;;;4.71;100.00;98942.88;5122880;28;20062;-73
2022/11/17 08:46:51;;;;;;;14.02;7.70;;;;;;;4.60;100.00;98932.09;5122372;28;20482;-74
2022/11/17 08:49:21;;;;;;;12.75;8.05;;;;;;;4.63;100.00;98941.50;5125588;28;20117;-73
2022/11/17 08:51:52;;;;;;;14.85;8.15;;;;;;;4.69;100.00;98921.41;5124096;28;20035;-73
2022/11/17 08:54:23;;;;;;;14.52;8.15;;;;;;;4.64;100.00;98925.91;5122757;28;20119;-73
2022/11/17 08:56:59;;;;;;;14.77;8.52;;;;;;;4.63;100.00;98937.16;5123822;28;20104;-73
2022/11/17 08:59:29;;;;;;;15.32;8.18;;;;;;;4.62;100.00;98919.94;5123038;29;20511;-72
2022/11/17 09:02:00;;;;;;;10.75;6.80;;;;;;;4.66;100.00;98923.25;5123815;28;20027;-72
2022/11/17 09:04:31;;;;;;;13.20;7.40;;;;;;;4.61;100.00;98928.59;5437389;23;20040;-73
2022/11/17 09:07:02;;;;;;;11.57;7.00;;;;;;;4.58;100.00;98918.38;5129045;28;20031;-72
2022/11/17 09:09:33;;;;;;;10.32;5.97;;;;;;;4.58;100.00;98928.72;5146381;28;20358;-72
2022/11/17 09:12:04;;;;;;;10.90;5.90;;;;;;;4.64;100.00;98923.31;5128382;28;20363;-72
2022/11/17 09:14:35;;;;;;;11.95;6.20;;;;;;;4.63;100.00;98908.69;5122227;29;20398;-72
2022/11/17 09:37:05;;;;;;;8.32;4.68;;;;;;;5.21;100.00;98879.59;6491729;22;20014;-73
2022/11/17 09:39:35;;;;;;;9.55;5.78;;;;;;;5.37;100.00;98875.47;6384817;22;3265583;-73
2022/11/17 09:42:13;;;;;;;8.02;4.65;;;;;;;5.23;100.00;98867.44;6530405;22;20014;-74
2022/11/17 09:44:53;;;;;;;8.10;4.32;;;;;;;5.32;100.00;98858.44;6535939;22;20038;-74
2022/11/17 09:47:36;;;;;;;12.73;6.97;;;;;;;5.24;100.00;98863.09;6526198;22;20006;-73
2022/11/17 09:53:05;;;;;;;9.30;5.10;;;;;;;5.29;100.00;98867.19;6500249;22;20349;-75
2022/11/17 09:55:39;;;;;;;9.23;4.93;;;;;;;5.25;100.00;98855.28;6505985;22;20022;-76
2022/11/17 09:58:12;;;;;;;8.23;4.93;;;;;;;5.26;100.00;98864.72;6506117;22;20010;-76
2022/11/17 10:00:47;;;;;;;7.93;5.10;;;;;;;5.31;100.00;98849.00;6505774;22;19999;-76
2022/11/17 10:03:21;;;;;;;9.35;5.40;;;;;;;5.31;100.00;98859.34;6505743;22;20002;-76
2022/11/17 10:05:52;;;;;;;7.93;4.80;;;;;;;5.31;100.00;98849.00;6493811;22;19996;-76
2022/11/17 10:08:45;;;;;;;10.35;6.20;;;;;;;5.20;100.00;98846.88;6468482;22;20467;-77
2022/11/17 10:11:32;;;;;;;7.20;4.85;;;;;;;5.30;100.00;98842.97;6505849;22;20007;-76
2022/11/17 10:14:12;;;;;;;6.43;3.83;;;;;;;5.22;100.00;98845.03;6505090;22;19996;-76
2022/11/17 10:16:52;;;;;;;8.27;4.80;;;;;;;5.21;100.00;98838.19;6507262;22;20026;-78
2022/11/17 10:19:23;;;;;;;7.93;4.68;;;;;;;5.31;100.00;98842.06;6506588;22;20006;-77
2022/11/17 10:22:34;;;;;;;6.82;4.47;;;;;;;5.31;100.00;98842.06;6505967;22;20451;-76
2022/11/17 10:25:22;;;;;;;6.93;4.20;;;;;;;5.32;100.00;98846.31;6485184;22;20014;-77
2022/11/17 10:27:54;;;;;;;6.50;4.10;;;;;;;5.24;100.00;98845.81;6467240;22;20270;-77
2022/11/17 10:30:25;;;;;;;7.72;4.22;;;;;;;5.39;100.00;98827.03;6467686;22;20027;-77
2022/11/17 10:32:57;;;;;;;6.70;4.53;;;;;;;5.45;100.00;98837.13;6505729;22;20450;-77
2022/11/17 10:35:33;;;;;;;6.90;3.75;;;;;;;5.42;100.00;98832.91;6497988;22;20057;-77
2022/11/17 10:38:16;;;;;;;6.15;3.72;;;;;;;5.50;100.00;98814.47;6460929;22;20004;-77
2022/11/17 10:40:50;;;;;;;5.28;3.40;;;;;;;5.48;100.00;98824.91;6461008;22;20004;-77
2022/11/17 10:43:25;;;;;;;5.53;3.70;;;;;;;5.51;100.00;98823.91;6496596;22;20049;-77
2022/11/17 10:46:00;;;;;;;;;;;;;;;5.50;100.00;98830.00;6498474;22;20006;-77
2022/11/17 10:48:38;;;;;;;4.97;3.30;;;;;;;5.53;100.00;98832.44;6499933;22;19939;-77
2022/11/17 10:51:22;;;;;;;5.20;3.22;;;;;;;5.50;100.00;98820.50;6498478;22;20018;-76
2022/11/17 10:54:21;;;;;;;4.55;2.95;;;;;;;5.56;100.00;98824.56;6498686;22;20435;-77
2022/11/17 10:56:57;;;;;;;6.53;3.80;;;;;;;5.52;100.00;98833.38;6492351;22;20067;-80
2022/11/17 10:59:31;;;;;;;6.00;3.50;;;;;;;5.53;100.00;98825.53;6501715;22;19996;-79
2022/11/17 11:02:23;;;;;;;6.15;3.92;;;;;;;5.61;100.00;98826.03;6498075;22;20710;-77
2022/11/17 11:05:07;;;;;;;6.25;3.50;;;;;;;5.59;100.00;98822.66;6460044;22;20092;-77
2022/11/17 11:07:38;;;;;;;7.15;4.15;;;;;;;5.59;100.00;98827.03;6498529;22;20007;-78
2022/11/17 11:10:16;;;;;;;7.40;4.28;;;;;;;5.64;100.00;98823.34;6498739;22;20137;-77
2022/11/17 11:13:13;;;;;;;6.45;3.80;;;;;;;5.70;100.00;98814.41;6498726;22;20003;-78
2022/11/17 11:15:43;;;;;;;;;;;;;;;5.73;100.00;98817.72;6499000;22;20018;-77
2022/11/17 11:18:17;;;;;;;6.47;3.60;;;;;;;5.83;100.00;98802.63;6498627;22;19907;-76
2022/11/17 11:20:58;;;;;;;4.72;3.10;;;;;;;5.83;100.00;98818.19;6498773;22;20027;-76
2022/11/17 11:23:51;;;;;;;4.72;3.28;;;;;;;5.72;100.00;98804.84;6460452;22;20022;-77
2022/11/17 11:26:47;;;;;;;4.75;3.10;;;;;;;5.81;100.00;98804.47;6487149;22;20006;-76
2022/11/17 11:29:44;;;;;;;5.43;3.10;;;;;;;5.71;100.00;98806.59;6499053;22;20003;-77
2022/11/17 11:32:42;;;;;;;4.10;2.72;;;;;;;5.81;100.00;98809.66;6486857;22;19996;-77
2022/11/17 11:35:31;;;;;;;3.80;2.47;;;;;;;5.80;100.00;98803.63;6499252;22;20000;-77
2022/11/17 11:38:19;;;;;;;3.90;2.60;;;;;;;5.77;100.00;98808.91;6501875;22;20007;-76
2022/11/17 11:46:21;;;;;;;3.95;2.50;;;;;;;5.76;100.00;98790.84;6520790;22;20030;-76
2022/11/17 11:48:56;;;;;;;4.95;2.08;;;;;;;5.76;100.00;98803.81;6517673;22;20007;-75
2022/11/17 11:51:33;;;;;;;3.58;2.28;;;;;;;5.76;100.00;98788.25;6491555;22;20347;-75
2022/11/17 11:54:39;;;;;;;3.47;2.35;;;;;;;5.83;100.00;98807.81;6529782;22;20068;-77
2022/11/17 11:57:15;;;;;;;4.68;2.25;;;;;;;5.86;100.00;98794.72;6491952;22;20003;-77
2022/11/17 11:59:57;;;;;;;4.18;2.50;;;;;;;5.86;100.00;98805.09;6530218;22;20262;-77
2022/11/17 12:02:47;;;;;;;4.43;2.42;;;;;;;5.82;100.00;98798.38;6529884;22;20066;-77
2022/11/17 12:05:36;;;;;;;3.67;2.00;;;;;;;5.82;100.00;98793.19;6529466;22;20007;-76
2022/11/17 12:08:37;;;;;;;2.83;1.95;;;;;;;5.79;100.00;98790.75;6530815;22;20453;-76
2022/11/17 12:14:05;;;;;;;5.80;2.67;;;;;;;5.79;100.00;98791.59;6529837;22;20461;-76
2022/11/17 12:16:38;;;;;;;3.38;2.33;;;;;;;5.80;100.00;98795.00;6491553;22;20013;-77
2022/11/17 12:19:53;;;;;;;5.03;2.67;;;;;;;5.75;100.00;98794.34;6537848;22;20011;-77
2022/11/17 12:22:24;;;;;;;3.72;2.33;;;;;;;5.77;100.00;98792.53;6407572;22;20028;-77
2022/11/17 12:24:58;;;;;;;3.53;2.53;;;;;;;5.81;100.00;98794.94;6498050;22;20249;-76
2022/11/17 12:27:53;;;;;;;4.65;2.45;;;;;;;5.85;100.00;98795.63;6538089;22;20066;-77
2022/11/17 12:30:27;;;;;;;5.40;2.28;;;;;;;5.83;100.00;98800.91;6542734;22;20210;-78
2022/11/17 12:33:04;;;;;;;3.38;2.13;;;;;;;5.86;100.00;98794.72;6492660;22;20502;-77
2022/11/17 12:35:36;;;;;;;3.55;1.98;;;;;;;5.79;100.00;98785.56;6492230;22;19999;-77
2022/11/17 12:38:16;;;;;;;3.60;2.33;;;;;;;5.87;100.00;98789.47;6491868;22;20457;-76
2022/11/17 12:40:47;;;;;;;2.95;1.88;;;;;;;5.86;100.00;98797.31;6493014;22;19999;-76
2022/11/17 12:43:20;;;;;;;3.22;2.10;;;;;;;5.86;100.00;98787.81;6492003;22;20026;-77
2022/11/17 12:46:12;;;;;;;3.53;2.40;;;;;;;5.85;100.00;98795.63;6530730;22;20339;-77
2022/11/17 12:48:57;;;;;;;3.15;2.03;;;;;;;5.87;100.00;98794.66;6492084;22;20018;-77
2022/11/17 12:51:59;;;;;;;3.40;2.13;;;;;;;5.85;100.00;98787.84;6533960;22;19995;-78
2022/11/17 12:54:44;;;;;;;3.40;2.03;;;;;;;5.94;100.00;98790.06;6499969;22;20011;-75
2022/11/17 12:57:26;;;;;;;3.25;2.20;;;;;;;5.88;100.00;98792.94;6498405;22;20446;-78
2022/11/17 13:00:09;;;;;;;3.17;2.15;;;;;;;5.88;100.00;98779.97;6536915;22;20389;-77
2022/11/17 13:02:55;;;;;;;4.15;2.40;;;;;;;5.97;100.00;98784.72;6495036;22;20339;-77
2022/11/17 13:05:27;;;;;;;3.58;2.10;;;;;;;5.99;100.00;98788.06;6534063;22;20030;-76
2022/11/17 13:08:27;;;;;;;2.88;1.85;;;;;;;5.91;100.00;98782.41;6497451;22;20007;-74
2022/11/17 13:11:13;;;;;;;3.17;2.22;;;;;;;5.99;100.00;98785.50;6515380;22;20027;-77
2022/11/17 13:13:43;;;;;;;3.15;2.20;;;;;;;5.99;100.00;98791.53;6536716;22;20002;-76